sensor_id;sensor_type;location;lat;lon;timestamp;temperature;humidity
13561;DHT22;6852;51.686;5.314;2022-11-20T00:01:30;0.70;99.90
13561;DHT22;6852;51.686;5.314;2022-11-20T00:03:57;0.80;99.90
13561;DHT22;6852;51.686;5.314;2022-11-20T00:06:26;0.90;99.90
13561;DHT22;6852;51.686;5.314;2022-11-20T00:08:58;0.70;99.90
13561;DHT22;6852;51.686;5.314;2022-11-20T00:11:26;0.70;99.90
13561;DHT22;6852;51.686;5.314;2022-11-20T00:13:56;0.60;99.90
13561;DHT22;6852;51.686;5.314;2022-11-20T00:16:25;0.60;99.90
13561;DHT22;6852;51.686;5.314;2022-11-20T00:18:53;0.60;99.90
13561;DHT22;6852;51.686;5.314;2022-11-20T00:21:25;0.70;99.90
13561;DHT22;6852;51.686;5.314;2022-11-20T00:23:54;0.60;99.90
13561;DHT22;6852;51.686;5.314;2022-11-20T00:26:22;0.50;99.90
13561;DHT22;6852;51.686;5.314;2022-11-20T00:28:50;0.60;99.90
13561;DHT22;6852;51.686;5.314;2022-11-20T00:31:18;0.50;99.90
13561;DHT22;6852;51.686;5.314;2022-11-20T00:33:45;0.40;99.90
13561;DHT22;6852;51.686;5.314;2022-11-20T00:36:17;0.40;99.90
13561;DHT22;6852;51.686;5.314;2022-11-20T00:38:44;0.50;99.90
13561;DHT22;6852;51.686;5.314;2022-11-20T00:41:13;0.50;99.90
13561;DHT22;6852;51.686;5.314;2022-11-20T00:43:41;0.50;99.90
13561;DHT22;6852;51.686;5.314;2022-11-20T00:46:15;0.40;99.90
13561;DHT22;6852;51.686;5.314;2022-11-20T00:48:42;0.50;99.90
13561;DHT22;6852;51.686;5.314;2022-11-20T00:51:12;0.40;99.90
13561;DHT22;6852;51.686;5.314;2022-11-20T00:53:39;0.50;99.90
13561;DHT22;6852;51.686;5.314;2022-11-20T00:56:08;0.50;99.90
13561;DHT22;6852;51.686;5.314;2022-11-20T00:58:38;0.60;99.90
13561;DHT22;6852;51.686;5.314;2022-11-20T01:01:11;0.40;99.90
13561;DHT22;6852;51.686;5.314;2022-11-20T01:03:43;0.20;99.90
13561;DHT22;6852;51.686;5.314;2022-11-20T01:06:15;0.50;99.90
13561;DHT22;6852;51.686;5.314;2022-11-20T01:08:43;0.60;99.90
13561;DHT22;6852;51.686;5.314;2022-11-20T01:11:14;0.50;99.90
13561;DHT22;6852;51.686;5.314;2022-11-20T01:13:41;0.50;99.90
13561;DHT22;6852;51.686;5.314;2022-11-20T01:16:11;0.60;99.90
13561;DHT22;6852;51.686;5.314;2022-11-20T01:18:40;0.60;99.90
13561;DHT22;6852;51.686;5.314;2022-11-20T01:21:09;0.60;99.90
13561;DHT22;6852;51.686;5.314;2022-11-20T01:23:38;0.60;99.90
13561;DHT22;6852;51.686;5.314;2022-11-20T01:26:08;0.60;99.90
13561;DHT22;6852;51.686;5.314;2022-11-20T01:28:35;0.60;99.90
13561;DHT22;6852;51.686;5.314;2022-11-20T01:31:21;0.50;99.90
13561;DHT22;6852;51.686;5.314;2022-11-20T01:33:51;0.50;99.90
13561;DHT22;6852;51.686;5.314;2022-11-20T01:36:19;0.50;99.90
13561;DHT22;6852;51.686;5.314;2022-11-20T01:38:46;0.50;99.90
13561;DHT22;6852;51.686;5.314;2022-11-20T01:41:14;0.30;99.90
13561;DHT22;6852;51.686;5.314;2022-11-20T01:44:02;0.40;99.90
13561;DHT22;6852;51.686;5.314;2022-11-20T01:46:36;0.50;99.90
13561;DHT22;6852;51.686;5.314;2022-11-20T01:49:11;0.50;99.90
13561;DHT22;6852;51.686;5.314;2022-11-20T01:51:46;0.50;99.90
13561;DHT22;6852;51.686;5.314;2022-11-20T01:54:18;0.40;99.90
13561;DHT22;6852;51.686;5.314;2022-11-20T01:56:48;0.50;99.90
13561;DHT22;6852;51.686;5.314;2022-11-20T01:59:18;0.50;99.90
13561;DHT22;6852;51.686;5.314;2022-11-20T02:01:46;0.60;99.90
13561;DHT22;6852;51.686;5.314;2022-11-20T02:04:13;0.60;99.90
13561;DHT22;6852;51.686;5.314;2022-11-20T02:06:47;0.50;99.90
13561;DHT22;6852;51.686;5.314;2022-11-20T02:09:16;0.50;99.90
13561;DHT22;6852;51.686;5.314;2022-11-20T02:11:43;0.40;99.90
13561;DHT22;6852;51.686;5.314;2022-11-20T02:14:10;0.40;99.90
13561;DHT22;6852;51.686;5.314;2022-11-20T02:16:41;0.40;99.90
13561;DHT22;6852;51.686;5.314;2022-11-20T02:19:27;0.40;99.90
13561;DHT22;6852;51.686;5.314;2022-11-20T02:22:08;0.30;99.90
13561;DHT22;6852;51.686;5.314;2022-11-20T02:24:37;0.40;99.90
13561;DHT22;6852;51.686;5.314;2022-11-20T02:27:10;0.40;99.90
13561;DHT22;6852;51.686;5.314;2022-11-20T02:29:53;0.40;99.90
13561;DHT22;6852;51.686;5.314;2022-11-20T02:32:23;0.20;99.90
13561;DHT22;6852;51.686;5.314;2022-11-20T02:34:50;0.40;99.90
13561;DHT22;6852;51.686;5.314;2022-11-20T02:37:18;0.40;99.90
13561;DHT22;6852;51.686;5.314;2022-11-20T02:39:47;0.40;99.90
13561;DHT22;6852;51.686;5.314;2022-11-20T02:42:15;0.40;99.90
13561;DHT22;6852;51.686;5.314;2022-11-20T02:44:42;0.30;99.90
13561;DHT22;6852;51.686;5.314;2022-11-20T02:47:09;0.30;99.90
13561;DHT22;6852;51.686;5.314;2022-11-20T02:49:36;0.40;99.90
13561;DHT22;6852;51.686;5.314;2022-11-20T02:52:02;0.50;99.90
13561;DHT22;6852;51.686;5.314;2022-11-20T02:54:29;0.40;99.90
13561;DHT22;6852;51.686;5.314;2022-11-20T02:56:56;0.40;99.90
13561;DHT22;6852;51.686;5.314;2022-11-20T02:59:23;0.40;99.90
13561;DHT22;6852;51.686;5.314;2022-11-20T03:01:49;0.40;99.90
13561;DHT22;6852;51.686;5.314;2022-11-20T03:04:16;0.40;99.90
13561;DHT22;6852;51.686;5.314;2022-11-20T03:06:43;0.40;99.90
13561;DHT22;6852;51.686;5.314;2022-11-20T03:09:10;0.30;99.90
13561;DHT22;6852;51.686;5.314;2022-11-20T03:11:36;0.30;99.90
13561;DHT22;6852;51.686;5.314;2022-11-20T03:14:04;0.30;99.90
13561;DHT22;6852;51.686;5.314;2022-11-20T03:16:32;0.30;99.90
13561;DHT22;6852;51.686;5.314;2022-11-20T03:18:59;0.30;99.90
13561;DHT22;6852;51.686;5.314;2022-11-20T03:21:29;0.30;99.90
13561;DHT22;6852;51.686;5.314;2022-11-20T03:23:56;0.40;99.90
13561;DHT22;6852;51.686;5.314;2022-11-20T03:26:25;0.30;99.90
13561;DHT22;6852;51.686;5.314;2022-11-20T03:28:57;0.30;99.90
13561;DHT22;6852;51.686;5.314;2022-11-20T03:31:26;0.10;99.90
13561;DHT22;6852;51.686;5.314;2022-11-20T03:33:53;0.20;99.90
13561;DHT22;6852;51.686;5.314;2022-11-20T03:36:21;0.30;99.90
13561;DHT22;6852;51.686;5.314;2022-11-20T03:38:48;0.20;99.90
13561;DHT22;6852;51.686;5.314;2022-11-20T03:41:31;0.30;99.90
13561;DHT22;6852;51.686;5.314;2022-11-20T03:44:00;0.20;99.90
13561;DHT22;6852;51.686;5.314;2022-11-20T03:46:28;0.20;99.90
13561;DHT22;6852;51.686;5.314;2022-11-20T03:48:55;0.20;99.90
13561;DHT22;6852;51.686;5.314;2022-11-20T03:51:24;0.10;99.90
13561;DHT22;6852;51.686;5.314;2022-11-20T03:53:53;0.10;99.90
13561;DHT22;6852;51.686;5.314;2022-11-20T03:56:24;0.10;99.90
13561;DHT22;6852;51.686;5.314;2022-11-20T03:58:51;0.10;99.90
13561;DHT22;6852;51.686;5.314;2022-11-20T04:01:20;0.10;99.90
13561;DHT22;6852;51.686;5.314;2022-11-20T04:03:48;0.10;99.90
13561;DHT22;6852;51.686;5.314;2022-11-20T04:06:18;0.10;99.90
13561;DHT22;6852;51.686;5.314;2022-11-20T04:08:45;0.10;99.90
13561;DHT22;6852;51.686;5.314;2022-11-20T04:11:24;0.00;99.90
13561;DHT22;6852;51.686;5.314;2022-11-20T04:13:54;0.00;99.90
13561;DHT22;6852;51.686;5.314;2022-11-20T04:16:22;0.00;99.90
13561;DHT22;6852;51.686;5.314;2022-11-20T04:18:53;0.00;99.90
13561;DHT22;6852;51.686;5.314;2022-11-20T04:21:20;0.00;99.90
13561;DHT22;6852;51.686;5.314;2022-11-20T04:23:48;0.00;99.90
13561;DHT22;6852;51.686;5.314;2022-11-20T04:26:14;0.00;99.90
13561;DHT22;6852;51.686;5.314;2022-11-20T04:28:41;0.00;99.90
13561;DHT22;6852;51.686;5.314;2022-11-20T04:31:10;0.10;99.90
13561;DHT22;6852;51.686;5.314;2022-11-20T04:33:38;0.10;99.90
13561;DHT22;6852;51.686;5.314;2022-11-20T04:36:11;0.00;99.90
13561;DHT22;6852;51.686;5.314;2022-11-20T04:38:39;-0.10;99.90
13561;DHT22;6852;51.686;5.314;2022-11-20T04:41:07;0.00;99.90
13561;DHT22;6852;51.686;5.314;2022-11-20T04:43:35;0.00;99.90
13561;DHT22;6852;51.686;5.314;2022-11-20T04:46:02;-0.10;99.90
13561;DHT22;6852;51.686;5.314;2022-11-20T04:48:29;-0.10;99.90
13561;DHT22;6852;51.686;5.314;2022-11-20T04:50:56;-0.10;99.90
13561;DHT22;6852;51.686;5.314;2022-11-20T04:53:23;-0.10;99.90
13561;DHT22;6852;51.686;5.314;2022-11-20T04:55:50;0.00;99.90
13561;DHT22;6852;51.686;5.314;2022-11-20T04:58:17;0.00;99.90
13561;DHT22;6852;51.686;5.314;2022-11-20T05:00:44;-0.10;99.90
13561;DHT22;6852;51.686;5.314;2022-11-20T05:03:10;-0.20;99.90
13561;DHT22;6852;51.686;5.314;2022-11-20T05:05:37;-0.20;99.90
13561;DHT22;6852;51.686;5.314;2022-11-20T05:08:04;-0.20;99.90
13561;DHT22;6852;51.686;5.314;2022-11-20T05:10:31;-0.20;99.90
13561;DHT22;6852;51.686;5.314;2022-11-20T05:12:57;-0.30;99.90
13561;DHT22;6852;51.686;5.314;2022-11-20T05:15:24;-0.30;99.90
13561;DHT22;6852;51.686;5.314;2022-11-20T05:17:52;-0.20;99.90
13561;DHT22;6852;51.686;5.314;2022-11-20T05:20:20;-0.30;99.90
13561;DHT22;6852;51.686;5.314;2022-11-20T05:22:46;-0.30;99.90
13561;DHT22;6852;51.686;5.314;2022-11-20T05:25:13;-0.20;99.90
13561;DHT22;6852;51.686;5.314;2022-11-20T05:27:40;-0.20;99.90
13561;DHT22;6852;51.686;5.314;2022-11-20T05:30:07;-0.20;99.90
13561;DHT22;6852;51.686;5.314;2022-11-20T05:32:34;-0.20;99.90
13561;DHT22;6852;51.686;5.314;2022-11-20T05:35:01;-0.10;99.90
13561;DHT22;6852;51.686;5.314;2022-11-20T05:37:28;-0.20;99.90
13561;DHT22;6852;51.686;5.314;2022-11-20T05:39:54;-0.30;99.90
13561;DHT22;6852;51.686;5.314;2022-11-20T05:42:21;-0.40;99.90
13561;DHT22;6852;51.686;5.314;2022-11-20T05:45:02;-0.40;99.90
13561;DHT22;6852;51.686;5.314;2022-11-20T05:47:32;-0.40;99.90
13561;DHT22;6852;51.686;5.314;2022-11-20T05:50:00;-0.50;99.90
13561;DHT22;6852;51.686;5.314;2022-11-20T05:52:30;-0.50;99.90
13561;DHT22;6852;51.686;5.314;2022-11-20T05:54:57;-0.50;99.90
13561;DHT22;6852;51.686;5.314;2022-11-20T05:57:24;-0.50;99.90
13561;DHT22;6852;51.686;5.314;2022-11-20T05:59:50;-0.60;99.90
13561;DHT22;6852;51.686;5.314;2022-11-20T06:02:17;-0.60;99.90
13561;DHT22;6852;51.686;5.314;2022-11-20T06:04:44;-0.50;99.90
13561;DHT22;6852;51.686;5.314;2022-11-20T06:07:11;-0.50;99.90
13561;DHT22;6852;51.686;5.314;2022-11-20T06:09:37;-0.50;99.90
13561;DHT22;6852;51.686;5.314;2022-11-20T06:12:05;-0.50;99.90
13561;DHT22;6852;51.686;5.314;2022-11-20T06:14:32;-0.50;99.90
13561;DHT22;6852;51.686;5.314;2022-11-20T06:16:58;-0.40;99.90
13561;DHT22;6852;51.686;5.314;2022-11-20T06:19:25;-0.50;99.90
13561;DHT22;6852;51.686;5.314;2022-11-20T06:21:52;-0.50;99.90
13561;DHT22;6852;51.686;5.314;2022-11-20T06:24:19;-0.50;99.90
13561;DHT22;6852;51.686;5.314;2022-11-20T06:26:45;-0.50;99.90
13561;DHT22;6852;51.686;5.314;2022-11-20T06:29:12;-0.70;99.90
13561;DHT22;6852;51.686;5.314;2022-11-20T06:31:39;-0.60;99.90
13561;DHT22;6852;51.686;5.314;2022-11-20T06:34:06;-0.60;99.90
13561;DHT22;6852;51.686;5.314;2022-11-20T06:36:33;-0.70;99.90
13561;DHT22;6852;51.686;5.314;2022-11-20T06:39:00;-0.70;99.90
13561;DHT22;6852;51.686;5.314;2022-11-20T06:41:27;-0.60;99.90
13561;DHT22;6852;51.686;5.314;2022-11-20T06:43:54;-0.60;99.90
13561;DHT22;6852;51.686;5.314;2022-11-20T06:46:21;-0.50;99.90
13561;DHT22;6852;51.686;5.314;2022-11-20T06:48:49;-0.60;99.90
13561;DHT22;6852;51.686;5.314;2022-11-20T06:51:16;-0.70;99.90
13561;DHT22;6852;51.686;5.314;2022-11-20T06:53:43;-0.60;99.90
13561;DHT22;6852;51.686;5.314;2022-11-20T06:56:10;-0.60;99.90
13561;DHT22;6852;51.686;5.314;2022-11-20T06:58:37;-0.60;99.90
13561;DHT22;6852;51.686;5.314;2022-11-20T07:01:09;-0.60;99.90
13561;DHT22;6852;51.686;5.314;2022-11-20T07:03:37;-0.60;99.90
13561;DHT22;6852;51.686;5.314;2022-11-20T07:06:05;-0.60;99.90
13561;DHT22;6852;51.686;5.314;2022-11-20T07:08:32;-0.50;99.90
13561;DHT22;6852;51.686;5.314;2022-11-20T07:11:01;-0.60;99.90
13561;DHT22;6852;51.686;5.314;2022-11-20T07:13:28;-0.50;99.90
13561;DHT22;6852;51.686;5.314;2022-11-20T07:15:58;-0.50;99.90
13561;DHT22;6852;51.686;5.314;2022-11-20T07:18:25;-0.70;99.90
13561;DHT22;6852;51.686;5.314;2022-11-20T07:20:52;-0.50;99.90
13561;DHT22;6852;51.686;5.314;2022-11-20T07:23:18;-0.40;99.90
13561;DHT22;6852;51.686;5.314;2022-11-20T07:25:45;-0.40;99.90
13561;DHT22;6852;51.686;5.314;2022-11-20T07:28:13;-0.30;99.90
13561;DHT22;6852;51.686;5.314;2022-11-20T07:30:40;-0.30;99.90
13561;DHT22;6852;51.686;5.314;2022-11-20T07:33:07;-0.20;99.90
13561;DHT22;6852;51.686;5.314;2022-11-20T07:35:33;0.00;99.90
13561;DHT22;6852;51.686;5.314;2022-11-20T07:38:00;0.00;99.90
13561;DHT22;6852;51.686;5.314;2022-11-20T07:40:27;0.00;99.90
13561;DHT22;6852;51.686;5.314;2022-11-20T07:42:55;0.00;99.90
13561;DHT22;6852;51.686;5.314;2022-11-20T07:45:23;0.10;99.90
13561;DHT22;6852;51.686;5.314;2022-11-20T07:47:51;0.00;99.90
13561;DHT22;6852;51.686;5.314;2022-11-20T07:50:18;0.00;99.90
13561;DHT22;6852;51.686;5.314;2022-11-20T07:52:45;0.00;99.90
13561;DHT22;6852;51.686;5.314;2022-11-20T07:55:12;0.10;99.90
13561;DHT22;6852;51.686;5.314;2022-11-20T07:57:39;0.20;99.90
13561;DHT22;6852;51.686;5.314;2022-11-20T08:00:08;0.10;99.90
13561;DHT22;6852;51.686;5.314;2022-11-20T08:02:39;0.20;99.90
13561;DHT22;6852;51.686;5.314;2022-11-20T08:05:06;0.30;99.90
13561;DHT22;6852;51.686;5.314;2022-11-20T08:07:41;0.30;99.90
13561;DHT22;6852;51.686;5.314;2022-11-20T08:10:10;0.30;99.90
13561;DHT22;6852;51.686;5.314;2022-11-20T08:12:49;0.30;99.90
13561;DHT22;6852;51.686;5.314;2022-11-20T08:15:35;0.30;99.90
13561;DHT22;6852;51.686;5.314;2022-11-20T08:18:07;0.20;99.90
13561;DHT22;6852;51.686;5.314;2022-11-20T08:20:54;0.30;99.90
13561;DHT22;6852;51.686;5.314;2022-11-20T08:23:22;0.40;99.90
13561;DHT22;6852;51.686;5.314;2022-11-20T08:25:50;0.40;99.90
13561;DHT22;6852;51.686;5.314;2022-11-20T08:28:18;0.40;99.90
13561;DHT22;6852;51.686;5.314;2022-11-20T08:30:48;0.60;99.90
13561;DHT22;6852;51.686;5.314;2022-11-20T08:33:15;0.60;99.90
13561;DHT22;6852;51.686;5.314;2022-11-20T08:35:43;0.60;99.90
13561;DHT22;6852;51.686;5.314;2022-11-20T08:38:10;0.70;99.90
13561;DHT22;6852;51.686;5.314;2022-11-20T08:40:37;0.70;99.90
13561;DHT22;6852;51.686;5.314;2022-11-20T08:43:04;0.80;99.90
13561;DHT22;6852;51.686;5.314;2022-11-20T08:45:31;0.80;99.90
13561;DHT22;6852;51.686;5.314;2022-11-20T08:48:02;0.80;99.90
13561;DHT22;6852;51.686;5.314;2022-11-20T08:50:30;0.90;99.90
13561;DHT22;6852;51.686;5.314;2022-11-20T08:53:05;0.80;99.90
13561;DHT22;6852;51.686;5.314;2022-11-20T08:55:32;0.90;99.90
13561;DHT22;6852;51.686;5.314;2022-11-20T08:58:08;0.90;99.90
13561;DHT22;6852;51.686;5.314;2022-11-20T09:00:34;1.00;99.90
13561;DHT22;6852;51.686;5.314;2022-11-20T09:03:02;1.00;99.90
13561;DHT22;6852;51.686;5.314;2022-11-20T09:05:29;1.10;99.90
13561;DHT22;6852;51.686;5.314;2022-11-20T09:07:57;1.30;99.90
13561;DHT22;6852;51.686;5.314;2022-11-20T09:10:24;1.40;99.90
13561;DHT22;6852;51.686;5.314;2022-11-20T09:12:52;1.30;99.90
13561;DHT22;6852;51.686;5.314;2022-11-20T09:15:19;1.40;99.90
13561;DHT22;6852;51.686;5.314;2022-11-20T09:17:53;1.50;99.90
13561;DHT22;6852;51.686;5.314;2022-11-20T09:20:20;1.50;99.90
13561;DHT22;6852;51.686;5.314;2022-11-20T09:22:47;1.50;99.90
13561;DHT22;6852;51.686;5.314;2022-11-20T09:25:14;1.50;99.90
13561;DHT22;6852;51.686;5.314;2022-11-20T09:27:41;1.50;99.90
13561;DHT22;6852;51.686;5.314;2022-11-20T09:30:10;1.50;99.90
13561;DHT22;6852;51.686;5.314;2022-11-20T09:32:38;1.70;99.90
13561;DHT22;6852;51.686;5.314;2022-11-20T09:35:06;1.70;99.90
13561;DHT22;6852;51.686;5.314;2022-11-20T09:37:33;1.60;99.90
13561;DHT22;6852;51.686;5.314;2022-11-20T09:39:59;1.80;99.90
13561;DHT22;6852;51.686;5.314;2022-11-20T09:43:01;1.80;99.90
13561;DHT22;6852;51.686;5.314;2022-11-20T09:50:46;2.00;99.90
13561;DHT22;6852;51.686;5.314;2022-11-20T09:53:50;2.00;99.90
13561;DHT22;6852;51.686;5.314;2022-11-20T09:56:20;2.00;99.90
13561;DHT22;6852;51.686;5.314;2022-11-20T09:58:50;2.00;99.90
13561;DHT22;6852;51.686;5.314;2022-11-20T10:01:19;2.00;99.90
13561;DHT22;6852;51.686;5.314;2022-11-20T10:07:04;2.10;99.90
13561;DHT22;6852;51.686;5.314;2022-11-20T10:09:55;2.00;99.90
13561;DHT22;6852;51.686;5.314;2022-11-20T10:18:22;2.10;99.90
13561;DHT22;6852;51.686;5.314;2022-11-20T10:21:09;2.10;99.90
13561;DHT22;6852;51.686;5.314;2022-11-20T10:29:13;2.00;99.90
13561;DHT22;6852;51.686;5.314;2022-11-20T10:31:45;2.00;99.90
13561;DHT22;6852;51.686;5.314;2022-11-20T10:37:17;2.30;99.90
13561;DHT22;6852;51.686;5.314;2022-11-20T10:42:37;2.30;99.90
13561;DHT22;6852;51.686;5.314;2022-11-20T10:45:53;2.30;99.90
13561;DHT22;6852;51.686;5.314;2022-11-20T10:48:22;2.40;99.90
13561;DHT22;6852;51.686;5.314;2022-11-20T10:51:18;2.50;99.90
13561;DHT22;6852;51.686;5.314;2022-11-20T10:56:46;2.70;99.90
13561;DHT22;6852;51.686;5.314;2022-11-20T11:01:54;2.90;99.90
13561;DHT22;6852;51.686;5.314;2022-11-20T11:04:44;3.00;99.90
13561;DHT22;6852;51.686;5.314;2022-11-20T11:07:24;2.90;99.90
13561;DHT22;6852;51.686;5.314;2022-11-20T11:09:54;2.90;99.90
13561;DHT22;6852;51.686;5.314;2022-11-20T11:12:24;2.90;99.90
13561;DHT22;6852;51.686;5.314;2022-11-20T11:14:57;3.00;99.90
13561;DHT22;6852;51.686;5.314;2022-11-20T11:17:31;3.00;99.90
13561;DHT22;6852;51.686;5.314;2022-11-20T11:22:32;3.10;99.90
13561;DHT22;6852;51.686;5.314;2022-11-20T11:24:59;3.10;99.90
13561;DHT22;6852;51.686;5.314;2022-11-20T11:27:26;3.20;99.90
13561;DHT22;6852;51.686;5.314;2022-11-20T11:30:15;3.30;99.90
13561;DHT22;6852;51.686;5.314;2022-11-20T11:32:42;3.40;99.90
13561;DHT22;6852;51.686;5.314;2022-11-20T11:35:24;3.40;99.90
13561;DHT22;6852;51.686;5.314;2022-11-20T11:38:04;3.30;99.90
13561;DHT22;6852;51.686;5.314;2022-11-20T11:40:33;3.30;99.90
13561;DHT22;6852;51.686;5.314;2022-11-20T11:43:06;3.40;99.90
13561;DHT22;6852;51.686;5.314;2022-11-20T11:45:54;3.50;99.90
13561;DHT22;6852;51.686;5.314;2022-11-20T11:48:22;3.40;99.90
13561;DHT22;6852;51.686;5.314;2022-11-20T11:50:50;3.40;99.90
13561;DHT22;6852;51.686;5.314;2022-11-20T11:53:20;3.40;99.90
13561;DHT22;6852;51.686;5.314;2022-11-20T11:56:09;3.30;99.90
13561;DHT22;6852;51.686;5.314;2022-11-20T11:58:48;3.40;99.90
13561;DHT22;6852;51.686;5.314;2022-11-20T12:01:47;3.30;99.90
13561;DHT22;6852;51.686;5.314;2022-11-20T12:07:13;3.40;99.90
13561;DHT22;6852;51.686;5.314;2022-11-20T12:10:02;3.40;99.90
13561;DHT22;6852;51.686;5.314;2022-11-20T12:12:40;3.30;99.90
13561;DHT22;6852;51.686;5.314;2022-11-20T12:15:21;3.30;99.90
13561;DHT22;6852;51.686;5.314;2022-11-20T12:17:49;3.40;99.90
13561;DHT22;6852;51.686;5.314;2022-11-20T12:20:16;3.30;99.90
13561;DHT22;6852;51.686;5.314;2022-11-20T12:23:14;3.40;99.90
13561;DHT22;6852;51.686;5.314;2022-11-20T12:25:47;3.50;99.90
13561;DHT22;6852;51.686;5.314;2022-11-20T12:28:37;3.50;99.90
13561;DHT22;6852;51.686;5.314;2022-11-20T12:31:37;3.60;99.90
13561;DHT22;6852;51.686;5.314;2022-11-20T12:40:34;3.60;99.90
13561;DHT22;6852;51.686;5.314;2022-11-20T12:43:21;3.70;99.90
13561;DHT22;6852;51.686;5.314;2022-11-20T12:46:46;3.80;99.90
13561;DHT22;6852;51.686;5.314;2022-11-20T12:49:37;3.90;99.90
13561;DHT22;6852;51.686;5.314;2022-11-20T12:55:16;3.80;99.90
13561;DHT22;6852;51.686;5.314;2022-11-20T12:58:12;3.90;99.90
13561;DHT22;6852;51.686;5.314;2022-11-20T13:01:00;3.90;99.90
13561;DHT22;6852;51.686;5.314;2022-11-20T13:03:42;3.90;99.90
13561;DHT22;6852;51.686;5.314;2022-11-20T13:06:16;3.90;99.90
13561;DHT22;6852;51.686;5.314;2022-11-20T13:08:53;4.00;99.90
13561;DHT22;6852;51.686;5.314;2022-11-20T13:14:48;4.00;99.90
13561;DHT22;6852;51.686;5.314;2022-11-20T13:17:31;4.00;99.90
13561;DHT22;6852;51.686;5.314;2022-11-20T13:20:02;4.10;99.90
13561;DHT22;6852;51.686;5.314;2022-11-20T13:22:50;4.20;99.90
13561;DHT22;6852;51.686;5.314;2022-11-20T13:25:37;4.20;99.90
13561;DHT22;6852;51.686;5.314;2022-11-20T13:28:27;4.30;99.90
13561;DHT22;6852;51.686;5.314;2022-11-20T13:30:56;4.30;99.90
13561;DHT22;6852;51.686;5.314;2022-11-20T13:33:33;4.30;99.90
13561;DHT22;6852;51.686;5.314;2022-11-20T13:36:06;4.20;99.90
13561;DHT22;6852;51.686;5.314;2022-11-20T13:38:50;4.30;99.90
13561;DHT22;6852;51.686;5.314;2022-11-20T13:41:34;4.30;99.90
13561;DHT22;6852;51.686;5.314;2022-11-20T13:44:23;4.30;99.90
13561;DHT22;6852;51.686;5.314;2022-11-20T13:46:51;4.30;99.90
13561;DHT22;6852;51.686;5.314;2022-11-20T13:49:37;4.30;99.90
13561;DHT22;6852;51.686;5.314;2022-11-20T13:55:38;4.40;99.90
13561;DHT22;6852;51.686;5.314;2022-11-20T14:03:25;4.40;99.90
13561;DHT22;6852;51.686;5.314;2022-11-20T14:06:27;4.40;99.90
13561;DHT22;6852;51.686;5.314;2022-11-20T14:08:55;4.50;99.90
13561;DHT22;6852;51.686;5.314;2022-11-20T14:11:24;4.40;99.90
13561;DHT22;6852;51.686;5.314;2022-11-20T14:13:56;4.50;99.90
13561;DHT22;6852;51.686;5.314;2022-11-20T14:16:24;4.50;99.90
13561;DHT22;6852;51.686;5.314;2022-11-20T14:18:52;4.50;99.90
13561;DHT22;6852;51.686;5.314;2022-11-20T14:21:29;4.50;99.90
13561;DHT22;6852;51.686;5.314;2022-11-20T14:24:06;4.60;99.90
13561;DHT22;6852;51.686;5.314;2022-11-20T14:26:33;4.50;99.90
13561;DHT22;6852;51.686;5.314;2022-11-20T14:29:00;4.50;99.90
13561;DHT22;6852;51.686;5.314;2022-11-20T14:31:28;4.60;99.90
13561;DHT22;6852;51.686;5.314;2022-11-20T14:33:55;4.60;99.90
13561;DHT22;6852;51.686;5.314;2022-11-20T14:36:24;4.60;99.90
13561;DHT22;6852;51.686;5.314;2022-11-20T14:38:52;4.60;99.90
13561;DHT22;6852;51.686;5.314;2022-11-20T14:41:23;4.70;99.90
13561;DHT22;6852;51.686;5.314;2022-11-20T14:43:56;4.60;99.90
13561;DHT22;6852;51.686;5.314;2022-11-20T14:46:24;4.60;99.90
13561;DHT22;6852;51.686;5.314;2022-11-20T14:48:56;4.60;99.90
13561;DHT22;6852;51.686;5.314;2022-11-20T14:51:31;4.70;99.90
13561;DHT22;6852;51.686;5.314;2022-11-20T14:54:18;4.80;99.90
13561;DHT22;6852;51.686;5.314;2022-11-20T14:57:02;4.70;99.90
13561;DHT22;6852;51.686;5.314;2022-11-20T14:59:34;4.70;99.90
13561;DHT22;6852;51.686;5.314;2022-11-20T15:02:08;4.60;99.90
13561;DHT22;6852;51.686;5.314;2022-11-20T15:04:57;4.50;99.90
13561;DHT22;6852;51.686;5.314;2022-11-20T15:07:28;4.60;99.90
13561;DHT22;6852;51.686;5.314;2022-11-20T15:10:00;4.50;99.90
13561;DHT22;6852;51.686;5.314;2022-11-20T15:12:27;4.50;99.90
13561;DHT22;6852;51.686;5.314;2022-11-20T15:14:55;4.50;99.90
13561;DHT22;6852;51.686;5.314;2022-11-20T15:17:22;4.50;99.90
13561;DHT22;6852;51.686;5.314;2022-11-20T15:19:49;4.60;99.90
13561;DHT22;6852;51.686;5.314;2022-11-20T15:22:15;4.60;99.90
13561;DHT22;6852;51.686;5.314;2022-11-20T15:24:46;4.50;99.90
13561;DHT22;6852;51.686;5.314;2022-11-20T15:27:13;4.60;99.90
13561;DHT22;6852;51.686;5.314;2022-11-20T15:29:41;4.60;99.90
13561;DHT22;6852;51.686;5.314;2022-11-20T15:32:08;4.60;99.90
13561;DHT22;6852;51.686;5.314;2022-11-20T15:34:39;4.70;99.90
13561;DHT22;6852;51.686;5.314;2022-11-20T15:37:06;4.60;99.90
13561;DHT22;6852;51.686;5.314;2022-11-20T15:39:33;4.60;99.90
13561;DHT22;6852;51.686;5.314;2022-11-20T15:41:59;4.60;99.90
13561;DHT22;6852;51.686;5.314;2022-11-20T15:44:26;4.60;99.90
13561;DHT22;6852;51.686;5.314;2022-11-20T15:46:53;4.60;99.90
13561;DHT22;6852;51.686;5.314;2022-11-20T15:49:20;4.60;99.90
13561;DHT22;6852;51.686;5.314;2022-11-20T15:51:50;4.70;99.90
13561;DHT22;6852;51.686;5.314;2022-11-20T15:54:18;4.70;99.90
13561;DHT22;6852;51.686;5.314;2022-11-20T15:56:50;4.70;99.90
13561;DHT22;6852;51.686;5.314;2022-11-20T15:59:20;4.70;99.90
13561;DHT22;6852;51.686;5.314;2022-11-20T16:01:47;4.70;99.90
13561;DHT22;6852;51.686;5.314;2022-11-20T16:04:15;4.80;99.90
13561;DHT22;6852;51.686;5.314;2022-11-20T16:06:43;4.80;99.90
13561;DHT22;6852;51.686;5.314;2022-11-20T16:09:10;4.90;99.90
13561;DHT22;6852;51.686;5.314;2022-11-20T16:11:37;4.90;99.90
13561;DHT22;6852;51.686;5.314;2022-11-20T16:14:04;4.90;99.90
13561;DHT22;6852;51.686;5.314;2022-11-20T16:16:51;5.00;99.90
13561;DHT22;6852;51.686;5.314;2022-11-20T16:19:17;5.00;99.90
13561;DHT22;6852;51.686;5.314;2022-11-20T16:21:45;5.00;99.90
13561;DHT22;6852;51.686;5.314;2022-11-20T16:24:13;5.10;99.90
13561;DHT22;6852;51.686;5.314;2022-11-20T16:26:40;5.10;99.90
13561;DHT22;6852;51.686;5.314;2022-11-20T16:29:07;5.10;99.90
13561;DHT22;6852;51.686;5.314;2022-11-20T16:31:35;5.10;99.90
13561;DHT22;6852;51.686;5.314;2022-11-20T16:34:04;5.20;99.90
13561;DHT22;6852;51.686;5.314;2022-11-20T16:36:41;5.20;99.90
13561;DHT22;6852;51.686;5.314;2022-11-20T16:39:09;5.20;99.90
13561;DHT22;6852;51.686;5.314;2022-11-20T16:41:36;5.20;99.90
13561;DHT22;6852;51.686;5.314;2022-11-20T16:44:07;5.20;99.90
13561;DHT22;6852;51.686;5.314;2022-11-20T16:46:34;5.30;99.90
13561;DHT22;6852;51.686;5.314;2022-11-20T16:49:04;5.30;99.90
13561;DHT22;6852;51.686;5.314;2022-11-20T16:51:33;5.40;99.90
13561;DHT22;6852;51.686;5.314;2022-11-20T16:54:02;5.40;99.90
13561;DHT22;6852;51.686;5.314;2022-11-20T16:56:29;5.40;99.90
13561;DHT22;6852;51.686;5.314;2022-11-20T16:58:58;5.50;99.90
13561;DHT22;6852;51.686;5.314;2022-11-20T17:01:26;5.60;99.90
13561;DHT22;6852;51.686;5.314;2022-11-20T17:04:02;5.60;99.90
13561;DHT22;6852;51.686;5.314;2022-11-20T17:06:31;5.60;99.90
13561;DHT22;6852;51.686;5.314;2022-11-20T17:08:59;5.60;99.90
13561;DHT22;6852;51.686;5.314;2022-11-20T17:11:26;5.60;99.90
13561;DHT22;6852;51.686;5.314;2022-11-20T17:13:55;5.60;99.90
13561;DHT22;6852;51.686;5.314;2022-11-20T17:16:23;5.70;99.90
13561;DHT22;6852;51.686;5.314;2022-11-20T17:18:50;5.80;99.90
13561;DHT22;6852;51.686;5.314;2022-11-20T17:21:18;5.80;99.90
13561;DHT22;6852;51.686;5.314;2022-11-20T17:23:46;5.80;99.90